Time;durP1;ratioP1;P1;durP2;ratioP2;P2;SDS_P1;SDS_P2;PMS_P1;PMS_P2;Temp;Humidity;BMP_temperature;BMP_pressure;BME280_temperature;BME280_humidity;BME280_pressure;Samples;Min_cycle;Max_cycle;Signal;HPM_P1;HPM_P2
2024/04/13 04:03:19;;;;;;;1.30;1.20;;;12.40;97.30;;;;;;5508805;21;20532;-85
2024/04/13 04:06:20;;;;;;;2.70;1.77;;;12.40;97.30;;;;;;5288214;27;20812;-85
2024/04/13 04:12:20;;;;;;;1.00;0.90;;;12.40;97.30;;;;;;5334883;21;20553;-65
2024/04/13 04:14:46;;;;;;;1.63;1.53;;;12.40;97.30;;;;;;5340811;26;21067;-65
2024/04/13 04:17:11;;;;;;;4.30;1.60;;;12.40;97.30;;;;;;5310733;26;20231;-65
2024/04/13 04:19:37;;;;;;;2.03;1.80;;;12.40;97.30;;;;;;5322613;26;20232;-65
2024/04/13 04:22:02;;;;;;;1.43;1.00;;;12.40;97.30;;;;;;5330283;26;20238;-65
2024/04/13 04:24:28;;;;;;;2.60;1.33;;;12.40;97.30;;;;;;5326525;26;20688;-65
2024/04/13 04:26:54;;;;;;;1.47;1.37;;;12.40;97.30;;;;;;5327091;26;20219;-65
2024/04/13 04:29:19;;;;;;;1.60;1.50;;;12.40;97.30;;;;;;5313811;26;20235;-65
2024/04/13 04:31:45;;;;;;;1.20;1.17;;;12.30;97.30;;;;;;5339981;26;20274;-65
2024/04/13 04:34:10;;;;;;;10.87;1.23;;;12.20;97.30;;;;;;5325520;26;20227;-65
2024/04/13 04:36:36;;;;;;;3.17;1.57;;;12.20;97.30;;;;;;5341388;26;20257;-65
2024/04/13 04:39:02;;;;;;;3.30;1.53;;;12.20;97.30;;;;;;5335998;26;20335;-65
2024/04/13 04:41:27;;;;;;;6.07;3.50;;;12.20;97.30;;;;;;5340751;26;20287;-65
2024/04/13 04:43:54;;;;;;;1.00;1.00;;;12.20;97.30;;;;;;5341235;26;20809;-65
2024/04/13 04:46:20;;;;;;;1.90;1.40;;;12.20;97.30;;;;;;5327744;26;20311;-65
2024/04/13 04:48:53;;;;;;;3.10;1.90;;;12.20;97.30;;;;;;5340662;26;20462;-65
2024/04/13 04:51:19;;;;;;;2.80;1.67;;;12.20;97.30;;;;;;5312156;26;20933;-65
2024/04/13 04:53:45;;;;;;;3.47;2.50;;;12.20;97.30;;;;;;5319041;26;20491;-65
2024/04/13 04:56:11;;;;;;;1.50;1.37;;;12.20;97.30;;;;;;5317409;26;20473;-65
2024/04/13 04:58:36;;;;;;;2.17;2.00;;;12.20;97.30;;;;;;5341074;26;20278;-65
2024/04/13 05:01:03;;;;;;;1.07;0.97;;;12.20;97.30;;;;;;5331521;26;20243;-65
2024/04/13 05:03:28;;;;;;;1.40;1.30;;;12.20;97.30;;;;;;5306715;26;20276;-65
2024/04/13 05:05:54;;;;;;;1.77;1.70;;;12.30;97.30;;;;;;5318522;26;20455;-65
2024/04/13 05:08:20;;;;;;;1.00;0.90;;;12.30;97.30;;;;;;5318754;26;20576;-65
2024/04/13 05:10:47;;;;;;;3.03;1.33;;;12.30;97.30;;;;;;5338834;26;20533;-65
2024/04/13 05:13:13;;;;;;;2.40;2.20;;;12.40;97.30;;;;;;5338957;26;20282;-65
2024/04/13 05:15:40;;;;;;;1.23;1.13;;;12.40;97.30;;;;;;5310049;26;20523;-65
2024/04/13 05:18:06;;;;;;;1.87;1.77;;;12.50;97.30;;;;;;5331268;26;20463;-65
2024/04/13 05:20:31;;;;;;;4.53;1.83;;;12.50;97.30;;;;;;5305957;26;20525;-65
2024/04/13 05:22:58;;;;;;;2.20;1.20;;;12.60;97.30;;;;;;5340504;26;20231;-65
2024/04/13 05:25:24;;;;;;;2.40;1.93;;;12.70;97.30;;;;;;5312301;26;20284;-65
2024/04/13 05:27:49;;;;;;;2.77;1.47;;;12.80;97.30;;;;;;5319571;26;20479;-65
2024/04/13 05:30:15;;;;;;;4.50;1.30;;;12.90;97.30;;;;;;5317280;26;20558;-65
2024/04/13 05:32:40;;;;;;;1.27;1.17;;;13.00;97.30;;;;;;5334844;26;20599;-66
2024/04/13 05:35:06;;;;;;;2.40;1.70;;;13.10;97.30;;;;;;5304146;26;20246;-66
2024/04/13 05:37:32;;;;;;;4.93;1.57;;;13.20;97.30;;;;;;5311264;26;20346;-66
2024/04/13 05:39:58;;;;;;;1.47;1.37;;;13.30;97.30;;;;;;5320169;26;20543;-66
2024/04/13 05:42:23;;;;;;;1.20;1.10;;;13.40;97.30;;;;;;5319185;26;20474;-66
2024/04/13 05:44:49;;;;;;;5.40;1.23;;;13.50;97.30;;;;;;5318141;26;20270;-66
2024/04/13 05:47:14;;;;;;;1.50;1.40;;;13.50;97.30;;;;;;5319803;26;20294;-66
2024/04/13 05:49:40;;;;;;;3.43;1.50;;;13.60;97.30;;;;;;5331900;26;20821;-66
2024/04/13 05:52:07;;;;;;;1.73;1.63;;;13.70;97.30;;;;;;5312321;26;20246;-66
2024/04/13 05:54:32;;;;;;;2.83;1.90;;;13.80;97.30;;;;;;5324863;26;21634;-66
2024/04/13 05:56:58;;;;;;;1.80;1.37;;;13.80;97.30;;;;;;5317728;26;20274;-67
2024/04/13 05:59:23;;;;;;;1.00;0.90;;;13.90;97.30;;;;;;5303807;26;20771;-68
2024/04/13 06:01:49;;;;;;;1.77;1.63;;;14.00;97.30;;;;;;5320660;26;20342;-66
2024/04/13 06:04:14;;;;;;;3.07;1.77;;;14.00;97.30;;;;;;5324098;26;20279;-67
2024/04/13 06:06:41;;;;;;;1.00;0.90;;;14.10;97.30;;;;;;5308162;26;20259;-68
2024/04/13 06:09:07;;;;;;;1.13;1.03;;;14.20;97.30;;;;;;5317604;26;20247;-67
2024/04/13 06:11:33;;;;;;;1.70;1.60;;;14.30;97.30;;;;;;5319104;26;20489;-66
2024/04/13 06:13:58;;;;;;;2.97;2.77;;;14.50;97.30;;;;;;5332979;26;20691;-66
2024/04/13 06:16:24;;;;;;;1.90;1.37;;;14.60;97.30;;;;;;5315649;26;20270;-67
2024/04/13 06:18:50;;;;;;;2.17;2.00;;;14.80;97.30;;;;;;5318631;26;20736;-66
2024/04/13 06:21:16;;;;;;;2.90;1.30;;;14.90;97.30;;;;;;5327721;26;20477;-67
2024/04/13 06:23:41;;;;;;;1.20;1.17;;;15.10;97.30;;;;;;5317318;26;20243;-69
2024/04/13 06:26:07;;;;;;;1.83;1.47;;;15.20;97.30;;;;;;5318821;26;20239;-70
2024/04/13 06:28:33;;;;;;;2.83;2.27;;;15.40;97.30;;;;;;5319289;26;20282;-65
2024/04/13 06:30:58;;;;;;;1.23;1.10;;;15.50;97.30;;;;;;5337621;26;20281;-67
2024/04/13 06:33:24;;;;;;;1.27;1.17;;;15.60;97.30;;;;;;5342201;26;20239;-68
2024/04/13 06:35:50;;;;;;;1.67;1.57;;;15.70;97.30;;;;;;5325794;26;20235;-69
2024/04/13 06:38:23;;;;;;;2.17;1.57;;;15.70;97.30;;;;;;5342063;26;20273;-67
2024/04/13 06:40:50;;;;;;;1.50;1.47;;;15.90;97.30;;;;;;5326288;26;20483;-64
2024/04/13 06:43:15;;;;;;;3.67;2.00;;;16.00;97.30;;;;;;5342153;26;20469;-65
2024/04/13 06:45:41;;;;;;;4.33;2.70;;;16.00;97.30;;;;;;5336533;26;20611;-67
2024/04/13 06:48:06;;;;;;;1.07;0.97;;;16.00;97.30;;;;;;5341975;26;20285;-69
2024/04/13 06:50:32;;;;;;;1.47;1.10;;;15.90;97.30;;;;;;5341650;26;20747;-70
2024/04/13 06:52:58;;;;;;;5.60;1.83;;;15.90;97.30;;;;;;5325871;26;21103;-70
2024/04/13 06:55:23;;;;;;;1.80;1.63;;;16.00;97.30;;;;;;5330666;26;20287;-75
2024/04/13 06:57:49;;;;;;;2.40;1.30;;;16.20;97.30;;;;;;5339849;26;20625;-67
2024/04/13 07:00:15;;;;;;;1.03;0.93;;;16.40;97.30;;;;;;5332746;26;20506;-68
2024/04/13 07:02:40;;;;;;;1.73;1.63;;;16.60;97.30;;;;;;5320990;26;20235;-67
2024/04/13 07:05:09;;;;;;;1.20;1.10;;;16.70;97.30;;;;;;5334483;26;20240;-68
2024/04/13 07:07:34;;;;;;;2.13;1.10;;;16.80;97.30;;;;;;5328344;26;20240;-71
2024/04/13 07:10:00;;;;;;;3.10;1.80;;;16.80;97.30;;;;;;5341743;26;20561;-75
2024/04/13 07:12:25;;;;;;;1.93;1.43;;;16.90;97.30;;;;;;5327416;26;20244;-71
2024/04/13 07:14:51;;;;;;;1.87;1.40;;;16.90;97.30;;;;;;5339588;26;20282;-69
2024/04/13 07:17:16;;;;;;;2.43;2.23;;;16.90;97.30;;;;;;5317563;26;20336;-65
2024/04/13 07:19:42;;;;;;;4.50;0.90;;;17.00;97.30;;;;;;5320713;26;20243;-67
2024/04/13 07:22:07;;;;;;;2.70;2.50;;;17.10;97.30;;;;;;5320038;26;20291;-64
2024/04/13 07:24:33;;;;;;;1.40;1.30;;;17.20;97.30;;;;;;5321309;26;20235;-68
2024/04/13 07:26:59;;;;;;;1.60;1.50;;;17.40;97.30;;;;;;5339256;26;20231;-68
2024/04/13 07:29:24;;;;;;;1.13;1.07;;;17.40;97.30;;;;;;5330608;26;20282;-66
2024/04/13 07:31:50;;;;;;;2.40;1.47;;;17.40;97.30;;;;;;5321184;26;20235;-70
2024/04/13 07:34:15;;;;;;;1.70;1.20;;;17.50;97.30;;;;;;5328971;26;20730;-71
2024/04/13 07:36:41;;;;;;;5.73;1.43;;;17.50;97.30;;;;;;5341775;26;20231;-68
2024/04/13 07:39:06;;;;;;;1.40;1.40;;;17.60;97.30;;;;;;5320086;26;20224;-67
2024/04/13 07:41:33;;;;;;;2.13;1.67;;;17.80;97.30;;;;;;5307218;26;20278;-66
2024/04/13 07:43:58;;;;;;;2.47;1.53;;;18.00;97.30;;;;;;5319115;26;20227;-68
2024/04/13 07:46:25;;;;;;;1.43;1.33;;;18.10;97.30;;;;;;5316228;26;20520;-67
2024/04/13 07:48:50;;;;;;;3.10;1.67;;;18.30;97.30;;;;;;5325307;26;20234;-71
2024/04/13 07:51:16;;;;;;;2.20;1.23;;;18.30;97.30;;;;;;5332632;26;20515;-68
2024/04/13 07:53:41;;;;;;;3.03;1.93;;;18.20;97.30;;;;;;5305737;26;20750;-68
2024/04/13 07:56:07;;;;;;;3.93;2.13;;;18.20;97.30;;;;;;5320039;26;20251;-68
2024/04/13 07:58:32;;;;;;;1.50;1.50;;;18.20;97.30;;;;;;5306709;26;20232;-67
2024/04/13 08:00:58;;;;;;;1.90;1.63;;;18.20;97.30;;;;;;5309687;26;20246;-77
2024/04/13 08:03:23;;;;;;;1.50;1.40;;;18.30;97.30;;;;;;5341777;26;20231;-68
2024/04/13 08:05:50;;;;;;;1.77;1.73;;;18.40;97.30;;;;;;5308600;26;20236;-65
2024/04/13 08:08:16;;;;;;;1.27;1.17;;;18.50;97.30;;;;;;5315482;26;20738;-71
2024/04/13 08:10:42;;;;;;;3.20;1.90;;;18.70;97.30;;;;;;5340396;26;20473;-68
2024/04/13 08:13:08;;;;;;;1.80;1.70;;;18.80;97.30;;;;;;5321103;26;20455;-68
2024/04/13 08:15:39;;;;;;;1.20;1.10;;;19.00;97.30;;;;;;5321233;26;20566;-72
2024/04/13 08:18:05;;;;;;;1.30;1.20;;;19.20;97.30;;;;;;5310827;26;20965;-68
2024/04/13 08:20:30;;;;;;;1.10;1.00;;;19.40;97.30;;;;;;5327119;26;20497;-69
2024/04/13 08:22:56;;;;;;;1.97;1.20;;;19.50;96.60;;;;;;5321436;26;20231;-69
2024/04/13 08:25:21;;;;;;;2.47;2.33;;;19.60;96.10;;;;;;5316894;26;20317;-69
2024/04/13 08:27:47;;;;;;;1.80;1.60;;;19.80;96.10;;;;;;5337740;26;20313;-68
2024/04/13 08:30:12;;;;;;;1.10;1.10;;;19.80;96.00;;;;;;5321085;26;20236;-66
2024/04/13 08:32:38;;;;;;;1.30;1.07;;;20.00;94.80;;;;;;5334585;26;20529;-67
2024/04/13 08:35:05;;;;;;;4.40;1.87;;;20.00;95.50;;;;;;5310783;26;20239;-69
2024/04/13 08:37:31;;;;;;;1.43;1.17;;;20.10;94.40;;;;;;5333730;26;20300;-71
2024/04/13 08:39:57;;;;;;;12.57;2.03;;;20.10;94.30;;;;;;5335144;26;20478;-76
2024/04/13 08:42:33;;;;;;;5.60;1.20;;;19.90;94.20;;;;;;5314356;26;21257;-67
2024/04/13 08:44:59;;;;;;;1.40;0.90;;;19.90;94.40;;;;;;5324819;26;20748;-66
2024/04/13 08:47:27;;;;;;;2.33;1.63;;;20.00;94.90;;;;;;5338902;26;20522;-68
2024/04/13 08:49:58;;;;;;;1.13;1.07;;;20.10;93.60;;;;;;5340418;26;20289;-64
2024/04/13 08:52:25;;;;;;;1.97;1.67;;;20.10;93.70;;;;;;5340696;26;21043;-72
2024/04/13 08:54:50;;;;;;;2.20;2.07;;;20.20;93.50;;;;;;5303608;26;20947;-71
2024/04/13 08:57:24;;;;;;;2.17;1.47;;;20.20;93.10;;;;;;5328730;26;20462;-78
2024/04/13 08:59:50;;;;;;;2.10;1.30;;;20.30;93.50;;;;;;5340372;26;20282;-69
2024/04/13 09:02:16;;;;;;;1.67;1.63;;;20.40;93.50;;;;;;5326569;26;20462;-66
2024/04/13 09:04:43;;;;;;;1.83;1.10;;;20.50;93.30;;;;;;5326427;26;20771;-77
2024/04/13 09:07:08;;;;;;;1.57;1.50;;;20.60;93.40;;;;;;5353571;26;20742;-75
2024/04/13 09:09:34;;;;;;;6.30;2.00;;;20.60;92.50;;;;;;5328242;26;20475;-66
2024/04/13 09:12:00;;;;;;;1.80;1.70;;;20.70;92.00;;;;;;5320197;26;20728;-67
2024/04/13 09:14:26;;;;;;;2.70;1.77;;;20.80;91.90;;;;;;5304174;26;20475;-66
2024/04/13 09:16:52;;;;;;;4.83;1.40;;;21.10;92.80;;;;;;5332799;26;20239;-72
2024/04/13 09:19:19;;;;;;;2.47;2.13;;;20.90;91.50;;;;;;5326135;26;20243;-69
2024/04/13 09:21:46;;;;;;;1.33;1.30;;;20.90;91.70;;;;;;5324498;26;20988;-63
2024/04/13 09:24:11;;;;;;;1.73;0.97;;;20.90;92.30;;;;;;5340319;26;20586;-69
2024/04/13 09:26:41;;;;;;;3.43;2.10;;;20.90;92.20;;;;;;5338129;26;20466;-71
2024/04/13 09:29:07;;;;;;;1.30;1.20;;;21.00;92.10;;;;;;5318877;26;20282;-65
2024/04/13 09:31:39;;;;;;;1.10;1.00;;;21.10;91.30;;;;;;5331082;26;21013;-66
2024/04/13 09:34:05;;;;;;;2.33;1.80;;;21.30;90.70;;;;;;5325644;26;20351;-67
2024/04/13 09:36:31;;;;;;;2.93;1.60;;;21.20;90.60;;;;;;5327260;26;20475;-63
2024/04/13 09:38:57;;;;;;;1.50;1.40;;;21.30;90.60;;;;;;5319394;26;20236;-67
2024/04/13 09:41:28;;;;;;;1.37;1.03;;;21.20;90.60;;;;;;5328378;26;20231;-68
2024/04/13 09:43:53;;;;;;;2.03;1.90;;;21.30;90.30;;;;;;5311084;26;21136;-63
2024/04/13 09:46:20;;;;;;;1.33;1.30;;;21.40;91.00;;;;;;5339941;26;20533;-71
2024/04/13 09:48:45;;;;;;;1.40;1.30;;;21.50;90.50;;;;;;5339944;26;20754;-69
2024/04/13 09:51:11;;;;;;;1.13;1.00;;;21.70;90.90;;;;;;5303594;26;20523;-71
2024/04/13 09:53:37;;;;;;;1.60;1.50;;;22.00;89.40;;;;;;5331633;26;20258;-71
2024/04/13 09:56:04;;;;;;;3.50;2.10;;;22.00;89.50;;;;;;5310875;26;20296;-66
2024/04/13 09:58:29;;;;;;;1.57;1.50;;;22.00;89.90;;;;;;5325487;26;20514;-70
2024/04/13 10:00:58;;;;;;;1.33;1.23;;;21.90;88.80;;;;;;5323233;26;20553;-68
2024/04/13 10:03:24;;;;;;;1.10;1.00;;;21.70;89.30;;;;;;5325693;26;20235;-70
2024/04/13 10:05:51;;;;;;;3.10;1.43;;;21.50;90.00;;;;;;5316205;26;20518;-74
2024/04/13 10:08:17;;;;;;;1.10;0.90;;;21.60;90.30;;;;;;5339360;26;20240;-68
2024/04/13 10:10:47;;;;;;;3.07;1.30;;;21.70;89.40;;;;;;5339382;26;20517;-69
2024/04/13 10:13:19;;;;;;;0.97;0.90;;;21.80;89.90;;;;;;5311209;26;20230;-73
2024/04/13 10:15:45;;;;;;;1.00;1.00;;;22.00;89.40;;;;;;5329646;21;21046;-60
2024/04/13 10:18:11;;;;;;;2.70;1.73;;;22.00;89.00;;;;;;5309685;26;20515;-60
2024/04/13 10:20:37;;;;;;;4.60;2.70;;;22.20;89.30;;;;;;5313740;26;20232;-60
2024/04/13 10:23:08;;;;;;;3.37;1.63;;;22.10;88.20;;;;;;5304021;26;20463;-61
2024/04/13 10:25:34;;;;;;;1.43;1.00;;;21.90;88.20;;;;;;5313606;26;20336;-60
2024/04/13 10:28:27;;;;;;;2.70;1.53;;;22.00;89.00;;;;;;5305849;26;21027;-62
2024/04/13 10:30:55;;;;;;;1.30;1.20;;;22.40;90.00;;;;;;5314446;26;20252;-62
2024/04/13 10:33:27;;;;;;;27.77;1.83;;;22.60;89.30;;;;;;5303057;26;20530;-64
2024/04/13 10:36:03;;;;;;;1.37;1.30;;;22.50;88.40;;;;;;5332653;26;20521;-61
2024/04/13 10:38:31;;;;;;;7.00;2.30;;;22.60;88.20;;;;;;5304634;26;21058;-61
2024/04/13 10:40:57;;;;;;;1.30;1.20;;;22.30;87.00;;;;;;5318283;26;20489;-62
2024/04/13 10:43:24;;;;;;;5.43;1.10;;;22.20;87.60;;;;;;5317310;26;20463;-64
2024/04/13 10:45:54;;;;;;;0.97;0.87;;;22.30;87.80;;;;;;5316508;26;20470;-61
2024/04/13 10:48:21;;;;;;;2.80;1.97;;;22.20;87.20;;;;;;5289789;26;20593;-62
2024/04/13 10:50:48;;;;;;;1.77;1.67;;;22.30;87.80;;;;;;5302441;26;20839;-60
2024/04/13 10:53:14;;;;;;;1.40;1.30;;;22.50;87.80;;;;;;5332833;26;21044;-60
2024/04/13 10:55:40;;;;;;;1.47;1.43;;;22.60;87.20;;;;;;5304063;26;20543;-61
2024/04/13 10:58:08;;;;;;;3.70;2.37;;;22.60;87.50;;;;;;5318242;26;20852;-62
2024/04/13 11:00:34;;;;;;;1.10;1.10;;;22.80;86.40;;;;;;5326593;26;20993;-62
2024/04/13 11:03:00;;;;;;;1.73;1.33;;;22.60;86.50;;;;;;5336670;26;20537;-61
2024/04/13 11:05:26;;;;;;;1.77;1.50;;;22.70;86.10;;;;;;5312067;26;20742;-63
2024/04/13 11:07:51;;;;;;;1.80;1.60;;;22.90;86.60;;;;;;5336538;26;20477;-64
2024/04/13 11:10:20;;;;;;;1.20;1.10;;;22.90;85.80;;;;;;5293779;26;20525;-63
2024/04/13 11:12:48;;;;;;;1.67;1.33;;;22.80;85.90;;;;;;5310840;26;20243;-65
2024/04/13 11:15:14;;;;;;;12.40;1.20;;;22.90;86.30;;;;;;5303717;26;20521;-63
2024/04/13 11:17:40;;;;;;;1.20;0.97;;;23.10;85.00;;;;;;5331007;26;20461;-61
2024/04/13 11:20:06;;;;;;;2.30;1.33;;;23.10;85.90;;;;;;5325092;26;20325;-65
2024/04/13 11:22:33;;;;;;;1.50;1.43;;;22.90;85.30;;;;;;5326946;26;20239;-62
2024/04/13 11:25:00;;;;;;;1.47;1.37;;;22.80;86.60;;;;;;5338442;26;20449;-64
2024/04/13 11:27:25;;;;;;;1.40;1.30;;;22.70;87.50;;;;;;5313128;26;21016;-63
2024/04/13 11:29:52;;;;;;;1.07;0.97;;;22.90;86.80;;;;;;5325893;26;20526;-63
2024/04/13 11:32:18;;;;;;;1.40;1.10;;;23.10;86.20;;;;;;5312801;26;20278;-62
2024/04/13 11:34:44;;;;;;;1.17;1.07;;;23.40;85.70;;;;;;5325426;26;20517;-62
2024/04/13 11:37:10;;;;;;;2.83;1.97;;;23.50;84.90;;;;;;5321449;26;20466;-63
2024/04/13 11:39:36;;;;;;;1.80;1.50;;;23.60;85.40;;;;;;5321411;26;20457;-62
2024/04/13 11:42:10;;;;;;;1.10;1.10;;;23.90;85.30;;;;;;5341555;26;20457;-63
2024/04/13 11:44:37;;;;;;;6.10;1.03;;;24.00;86.00;;;;;;5341792;26;21092;-62
2024/04/13 11:47:03;;;;;;;1.30;1.23;;;23.80;84.50;;;;;;5338036;26;21111;-63
2024/04/13 11:49:29;;;;;;;3.57;2.10;;;23.50;84.60;;;;;;5330065;26;20453;-64
2024/04/13 11:51:57;;;;;;;1.27;1.20;;;23.20;84.80;;;;;;5310552;26;20586;-63
2024/04/13 11:54:27;;;;;;;1.10;1.00;;;23.20;86.50;;;;;;5339921;26;20568;-64
2024/04/13 11:56:53;;;;;;;7.70;2.50;;;23.30;85.80;;;;;;5326845;26;20517;-63
2024/04/13 11:59:19;;;;;;;1.30;1.20;;;23.40;86.30;;;;;;5305319;26;20522;-64
2024/04/13 12:01:44;;;;;;;1.67;1.57;;;23.60;85.80;;;;;;5330881;26;20570;-63
2024/04/13 12:04:10;;;;;;;1.10;1.03;;;23.30;84.80;;;;;;5337932;26;20235;-63
2024/04/13 12:06:36;;;;;;;1.07;0.97;;;23.10;85.20;;;;;;5321141;26;20296;-64
2024/04/13 12:09:01;;;;;;;1.67;1.40;;;23.40;85.30;;;;;;5305026;26;20259;-63
2024/04/13 12:11:30;;;;;;;2.30;1.03;;;23.70;84.10;;;;;;5305045;26;20240;-62
2024/04/13 12:13:56;;;;;;;3.13;0.90;;;23.80;82.90;;;;;;5307471;26;20705;-63
2024/04/13 12:16:22;;;;;;;2.33;1.70;;;23.70;82.80;;;;;;5306960;26;20743;-63
2024/04/13 12:18:47;;;;;;;1.27;1.00;;;23.50;83.50;;;;;;5306330;26;20526;-63
2024/04/13 12:21:13;;;;;;;1.03;0.93;;;23.30;84.10;;;;;;5324181;26;20240;-63
2024/04/13 12:23:39;;;;;;;1.53;1.10;;;23.50;84.00;;;;;;5309322;26;20606;-63
2024/04/13 12:26:04;;;;;;;1.87;1.10;;;23.60;83.50;;;;;;5319853;26;20519;-63
2024/04/13 12:28:30;;;;;;;1.27;1.13;;;23.60;83.30;;;;;;5323604;26;20239;-63
2024/04/13 12:30:56;;;;;;;1.50;1.40;;;23.80;83.40;;;;;;5325850;26;20235;-62
2024/04/13 12:33:22;;;;;;;1.43;0.80;;;23.90;82.50;;;;;;5306138;26;20348;-63
2024/04/13 12:35:48;;;;;;;1.80;1.13;;;23.70;82.00;;;;;;5320341;26;20231;-64
2024/04/13 12:38:13;;;;;;;1.90;1.50;;;23.60;82.20;;;;;;5292536;26;20811;-64
2024/04/13 12:40:39;;;;;;;3.80;1.47;;;23.60;82.50;;;;;;5313796;26;20582;-65
2024/04/13 12:43:07;;;;;;;1.00;1.00;;;23.60;82.30;;;;;;5324363;26;20230;-66
2024/04/13 12:45:32;;;;;;;2.13;0.90;;;23.70;82.70;;;;;;5314400;26;20328;-65
2024/04/13 12:47:59;;;;;;;5.03;1.63;;;23.70;82.00;;;;;;5326002;26;20784;-63
2024/04/13 12:50:24;;;;;;;1.00;0.90;;;23.70;81.70;;;;;;5290547;26;20354;-63
2024/04/13 12:52:49;;;;;;;5.40;1.63;;;23.70;81.70;;;;;;5330521;26;20993;-64
2024/04/13 12:55:15;;;;;;;1.80;1.60;;;23.80;81.80;;;;;;5310061;26;20232;-63
2024/04/13 12:57:42;;;;;;;1.10;1.00;;;23.80;81.20;;;;;;5314898;26;20248;-63
2024/04/13 13:00:08;;;;;;;0.90;0.80;;;23.70;81.30;;;;;;5322108;26;20244;-62
2024/04/13 13:02:34;;;;;;;1.40;1.30;;;23.70;82.20;;;;;;5340235;26;20875;-62
2024/04/13 13:04:59;;;;;;;1.77;1.40;;;23.70;81.60;;;;;;5326265;26;20592;-61
2024/04/13 13:07:25;;;;;;;1.10;1.00;;;23.90;82.30;;;;;;5319670;26;20228;-61
2024/04/13 13:09:50;;;;;;;1.30;1.20;;;24.10;81.50;;;;;;5305602;26;20236;-61
2024/04/13 13:12:16;;;;;;;1.23;1.20;;;24.30;81.10;;;;;;5305395;26;20231;-62
2024/04/13 13:14:41;;;;;;;1.10;1.00;;;24.30;81.30;;;;;;5315081;26;20235;-62
2024/04/13 13:17:07;;;;;;;1.00;1.00;;;24.40;80.90;;;;;;5323665;26;20719;-64
2024/04/13 13:19:33;;;;;;;1.10;1.00;;;24.70;80.70;;;;;;5325358;26;20247;-62
2024/04/13 13:21:59;;;;;;;1.57;1.20;;;24.90;79.30;;;;;;5337529;26;20274;-61
2024/04/13 13:24:24;;;;;;;1.10;1.00;;;24.90;79.60;;;;;;5320150;26;20232;-61
2024/04/13 13:26:50;;;;;;;1.27;1.17;;;25.20;80.60;;;;;;5303562;26;20240;-63
2024/04/13 13:29:15;;;;;;;1.40;1.20;;;25.10;79.90;;;;;;5336624;26;20594;-64
2024/04/13 13:31:41;;;;;;;1.30;1.20;;;25.00;79.30;;;;;;5339447;26;20278;-61
2024/04/13 13:34:06;;;;;;;10.63;1.80;;;25.00;79.50;;;;;;5322681;26;20235;-61
2024/04/13 13:36:32;;;;;;;0.93;0.90;;;25.20;80.20;;;;;;5305139;26;20295;-61
2024/04/13 13:38:58;;;;;;;1.20;1.10;;;24.90;78.90;;;;;;5318613;26;20235;-63
2024/04/13 13:41:24;;;;;;;2.23;2.03;;;24.70;80.20;;;;;;5309108;26;20250;-61
2024/04/13 13:43:50;;;;;;;1.07;1.00;;;24.60;79.70;;;;;;5326910;26;20271;-60
2024/04/13 13:46:15;;;;;;;1.90;1.00;;;24.80;80.40;;;;;;5319092;26;20508;-63
2024/04/13 13:48:42;;;;;;;1.20;1.10;;;24.80;80.30;;;;;;5312524;26;20279;-62
2024/04/13 13:51:07;;;;;;;2.30;1.00;;;24.60;80.10;;;;;;5309720;26;20731;-62
2024/04/13 13:53:33;;;;;;;0.77;0.77;;;24.80;80.20;;;;;;5325980;26;20585;-63
2024/04/13 13:55:58;;;;;;;4.20;1.17;;;24.80;78.90;;;;;;5319310;26;20343;-63
2024/04/13 13:58:24;;;;;;;1.03;0.93;;;24.50;79.80;;;;;;5322236;26;20750;-63
2024/04/13 14:00:49;;;;;;;0.90;0.80;;;24.40;80.40;;;;;;5314548;26;20247;-65
2024/04/13 14:03:16;;;;;;;0.93;0.90;;;24.50;80.20;;;;;;5307227;26;20633;-62
2024/04/13 14:05:41;;;;;;;1.00;0.90;;;24.50;80.50;;;;;;5314637;26;20235;-63
2024/04/13 14:08:07;;;;;;;0.83;0.73;;;24.80;79.60;;;;;;5331348;26;21541;-60
2024/04/13 14:10:33;;;;;;;1.53;1.43;;;24.80;79.60;;;;;;5337825;26;20239;-61
2024/04/13 14:12:58;;;;;;;1.00;0.90;;;24.70;78.90;;;;;;5322877;26;21020;-61
2024/04/13 14:15:24;;;;;;;1.37;1.20;;;24.60;79.40;;;;;;5320282;26;20285;-65
2024/04/13 14:17:49;;;;;;;1.00;0.90;;;24.50;79.30;;;;;;5302777;26;20240;-62
2024/04/13 14:20:15;;;;;;;1.10;1.00;;;24.40;79.80;;;;;;5319566;26;20236;-64
2024/04/13 14:22:41;;;;;;;1.60;1.20;;;24.60;79.60;;;;;;5338586;26;20332;-63
2024/04/13 14:25:07;;;;;;;1.10;1.00;;;24.50;79.90;;;;;;5338776;26;20227;-64
2024/04/13 14:27:32;;;;;;;1.00;0.90;;;24.60;79.20;;;;;;5310660;26;20539;-64
2024/04/13 14:29:58;;;;;;;2.00;1.43;;;24.60;78.80;;;;;;5338978;26;20465;-62
2024/04/13 14:32:24;;;;;;;1.33;1.23;;;24.50;78.60;;;;;;5319857;26;20232;-61
2024/04/13 14:34:50;;;;;;;1.47;1.10;;;24.50;78.40;;;;;;5317183;26;20293;-62
2024/04/13 14:37:16;;;;;;;1.07;1.00;;;24.60;78.70;;;;;;5317033;26;20467;-61
2024/04/13 14:39:44;;;;;;;2.30;1.20;;;24.60;77.80;;;;;;5297411;26;20616;-60
2024/04/13 14:42:09;;;;;;;1.10;1.00;;;24.60;78.60;;;;;;5298763;26;20969;-63
2024/04/13 14:44:37;;;;;;;0.97;0.90;;;24.60;78.60;;;;;;5318653;26;20503;-61
2024/04/13 14:47:04;;;;;;;0.90;0.90;;;24.40;78.40;;;;;;5316852;26;20240;-62
2024/04/13 14:49:30;;;;;;;1.03;0.93;;;24.40;78.60;;;;;;5316223;26;20459;-61
2024/04/13 14:51:55;;;;;;;0.77;0.73;;;24.40;78.90;;;;;;5315722;26;20556;-61
2024/04/13 14:54:21;;;;;;;1.03;0.97;;;24.50;79.00;;;;;;5323685;26;20244;-63
2024/04/13 14:56:46;;;;;;;0.90;0.80;;;24.50;78.50;;;;;;5321505;26;20631;-63
2024/04/13 14:59:12;;;;;;;2.03;1.10;;;24.50;78.10;;;;;;5307272;26;20282;-61
2024/04/13 15:01:40;;;;;;;1.07;0.97;;;24.50;78.20;;;;;;5321656;26;20248;-62
2024/04/13 15:04:06;;;;;;;1.77;1.17;;;24.60;78.40;;;;;;5307635;26;20782;-61
2024/04/13 15:06:31;;;;;;;0.90;0.80;;;24.80;78.40;;;;;;5312990;26;20457;-61
2024/04/13 15:08:57;;;;;;;0.90;0.90;;;24.70;77.10;;;;;;5330759;26;21125;-61
2024/04/13 15:11:22;;;;;;;0.90;0.90;;;24.60;77.70;;;;;;5324934;26;20243;-63
2024/04/13 15:13:48;;;;;;;0.90;0.80;;;24.60;77.00;;;;;;5318580;26;20839;-62
2024/04/13 15:16:16;;;;;;;1.00;0.90;;;24.80;78.00;;;;;;5321221;26;20286;-61
2024/04/13 15:18:42;;;;;;;0.60;0.60;;;25.40;77.70;;;;;;5321430;26;20450;-61
2024/04/13 15:21:08;;;;;;;2.03;1.43;;;25.80;76.80;;;;;;5300170;26;20557;-62
2024/04/13 15:23:34;;;;;;;1.80;1.53;;;25.90;76.40;;;;;;5311976;26;20517;-62
2024/04/13 15:25:59;;;;;;;1.30;1.20;;;26.00;74.90;;;;;;5327445;26;20273;-63
2024/04/13 15:28:25;;;;;;;1.00;0.90;;;26.30;75.20;;;;;;5324788;26;20364;-60
2024/04/13 15:30:51;;;;;;;0.90;0.80;;;26.30;73.10;;;;;;5330205;26;20318;-62
2024/04/13 15:33:17;;;;;;;1.10;1.07;;;25.90;74.50;;;;;;5321003;26;20283;-59
2024/04/13 15:35:42;;;;;;;1.33;0.90;;;25.60;75.10;;;;;;5306993;26;20451;-60
2024/04/13 15:38:08;;;;;;;1.10;1.10;;;25.90;74.70;;;;;;5318507;26;20312;-60
2024/04/13 15:40:33;;;;;;;1.03;1.00;;;26.00;74.30;;;;;;5305320;26;20248;-60
2024/04/13 15:42:59;;;;;;;2.70;1.20;;;26.10;74.60;;;;;;5313569;26;20233;-61
2024/04/13 15:45:24;;;;;;;1.27;1.00;;;26.10;73.40;;;;;;5316389;26;20270;-61
2024/04/13 15:47:50;;;;;;;1.80;0.97;;;26.00;73.40;;;;;;5304760;26;20333;-61
2024/04/13 15:50:15;;;;;;;1.53;1.20;;;25.80;73.10;;;;;;5306448;26;20236;-62
2024/04/13 15:52:41;;;;;;;0.97;0.90;;;25.30;74.00;;;;;;5306365;26;20561;-61
2024/04/13 15:55:07;;;;;;;0.80;0.70;;;25.60;74.40;;;;;;5306700;26;20232;-60
2024/04/13 15:57:32;;;;;;;0.90;0.80;;;26.10;74.40;;;;;;5311201;26;20232;-60
2024/04/13 15:59:59;;;;;;;1.10;1.00;;;26.50;73.30;;;;;;5324988;26;20517;-62
2024/04/13 16:02:25;;;;;;;0.90;0.80;;;26.70;73.00;;;;;;5322098;26;20237;-61
2024/04/13 16:04:53;;;;;;;1.30;1.20;;;26.20;73.70;;;;;;5340987;26;20465;-61
2024/04/13 16:07:19;;;;;;;3.07;1.60;;;25.70;74.20;;;;;;5341249;26;20509;-61
2024/04/13 16:09:44;;;;;;;0.80;0.70;;;25.40;75.30;;;;;;5341014;26;21057;-62
2024/04/13 16:12:10;;;;;;;1.17;1.13;;;25.20;75.00;;;;;;5326431;26;20485;-62
2024/04/13 16:14:35;;;;;;;2.93;1.33;;;25.30;75.60;;;;;;5306906;26;20252;-61
2024/04/13 16:17:01;;;;;;;0.83;0.77;;;25.50;74.20;;;;;;5304593;26;20240;-61
2024/04/13 16:19:28;;;;;;;1.03;0.97;;;25.30;75.00;;;;;;5337820;26;20344;-61
2024/04/13 16:21:54;;;;;;;2.30;1.20;;;25.10;75.10;;;;;;5330200;26;20299;-62
2024/04/13 16:24:20;;;;;;;0.77;0.73;;;24.80;75.60;;;;;;5315197;26;20515;-62
2024/04/13 16:26:46;;;;;;;0.77;0.73;;;24.70;76.20;;;;;;5340453;26;20454;-61
2024/04/13 16:29:14;;;;;;;1.00;1.00;;;24.60;76.50;;;;;;5325798;26;20294;-61
2024/04/13 16:31:40;;;;;;;1.60;1.50;;;24.50;76.90;;;;;;5309991;26;20530;-62
2024/04/13 16:34:05;;;;;;;1.73;1.63;;;24.30;77.00;;;;;;5312879;26;20463;-62
2024/04/13 16:36:31;;;;;;;3.90;1.20;;;24.20;77.90;;;;;;5320348;26;20296;-61
2024/04/13 16:38:56;;;;;;;1.23;1.13;;;24.10;77.20;;;;;;5302559;26;20274;-61
2024/04/13 16:41:22;;;;;;;1.53;1.43;;;24.10;78.50;;;;;;5334356;26;20239;-61
2024/04/13 16:43:47;;;;;;;2.10;1.43;;;24.10;77.70;;;;;;5305928;26;20279;-61
2024/04/13 16:46:13;;;;;;;1.00;0.90;;;24.00;78.90;;;;;;5306005;26;20232;-61